sensor_id;sensor_type;location;lat;lon;timestamp;P1;durP1;ratioP1;P2;durP2;ratioP2
80249;SDS011;69561;37.974;23.708;2023-08-17T00:02:26;4.55;;;4.20;;
80249;SDS011;69561;37.974;23.708;2023-08-17T00:04:52;4.78;;;4.38;;
80249;SDS011;69561;37.974;23.708;2023-08-17T00:07:17;5.18;;;4.68;;
80249;SDS011;69561;37.974;23.708;2023-08-17T00:09:43;4.90;;;4.40;;
80249;SDS011;69561;37.974;23.708;2023-08-17T00:12:09;4.63;;;4.25;;
80249;SDS011;69561;37.974;23.708;2023-08-17T00:14:34;4.93;;;4.53;;
80249;SDS011;69561;37.974;23.708;2023-08-17T00:17:00;5.03;;;4.63;;
80249;SDS011;69561;37.974;23.708;2023-08-17T00:19:28;4.70;;;4.30;;
80249;SDS011;69561;37.974;23.708;2023-08-17T00:21:54;4.75;;;4.35;;
80249;SDS011;69561;37.974;23.708;2023-08-17T00:24:20;5.07;;;4.65;;
80249;SDS011;69561;37.974;23.708;2023-08-17T00:26:46;5.63;;;4.25;;
80249;SDS011;69561;37.974;23.708;2023-08-17T00:29:11;4.78;;;4.35;;
80249;SDS011;69561;37.974;23.708;2023-08-17T00:31:39;5.38;;;4.68;;
80249;SDS011;69561;37.974;23.708;2023-08-17T00:34:06;4.97;;;4.47;;
80249;SDS011;69561;37.974;23.708;2023-08-17T00:36:31;4.68;;;4.28;;
80249;SDS011;69561;37.974;23.708;2023-08-17T00:38:57;5.10;;;4.60;;
80249;SDS011;69561;37.974;23.708;2023-08-17T00:41:23;4.63;;;4.22;;
80249;SDS011;69561;37.974;23.708;2023-08-17T00:43:49;4.80;;;4.38;;
80249;SDS011;69561;37.974;23.708;2023-08-17T00:46:14;5.05;;;4.55;;
80249;SDS011;69561;37.974;23.708;2023-08-17T00:48:41;4.70;;;4.30;;
80249;SDS011;69561;37.974;23.708;2023-08-17T00:51:07;5.05;;;4.47;;
80249;SDS011;69561;37.974;23.708;2023-08-17T00:53:33;4.72;;;4.32;;
80249;SDS011;69561;37.974;23.708;2023-08-17T00:55:59;4.78;;;4.38;;
80249;SDS011;69561;37.974;23.708;2023-08-17T00:58:26;4.43;;;4.03;;
80249;SDS011;69561;37.974;23.708;2023-08-17T01:00:53;4.93;;;4.43;;
80249;SDS011;69561;37.974;23.708;2023-08-17T01:03:18;4.60;;;4.20;;
80249;SDS011;69561;37.974;23.708;2023-08-17T01:05:47;5.18;;;4.78;;
80249;SDS011;69561;37.974;23.708;2023-08-17T01:08:12;5.07;;;4.57;;
80249;SDS011;69561;37.974;23.708;2023-08-17T01:13:11;5.10;;;4.70;;
80249;SDS011;69561;37.974;23.708;2023-08-17T01:15:50;5.13;;;4.53;;
80249;SDS011;69561;37.974;23.708;2023-08-17T01:20:49;5.90;;;4.40;;
80249;SDS011;69561;37.974;23.708;2023-08-17T01:23:15;4.65;;;4.25;;
80249;SDS011;69561;37.974;23.708;2023-08-17T01:25:41;4.70;;;4.30;;
80249;SDS011;69561;37.974;23.708;2023-08-17T01:28:07;6.22;;;4.50;;
80249;SDS011;69561;37.974;23.708;2023-08-17T01:30:39;4.68;;;4.28;;
80249;SDS011;69561;37.974;23.708;2023-08-17T01:33:29;4.72;;;4.28;;
80249;SDS011;69561;37.974;23.708;2023-08-17T01:36:09;5.00;;;4.50;;
80249;SDS011;69561;37.974;23.708;2023-08-17T01:38:41;4.82;;;4.40;;
80249;SDS011;69561;37.974;23.708;2023-08-17T01:41:09;5.15;;;4.65;;
80249;SDS011;69561;37.974;23.708;2023-08-17T01:43:43;5.00;;;4.50;;
80249;SDS011;69561;37.974;23.708;2023-08-17T01:46:14;4.78;;;4.40;;
80249;SDS011;69561;37.974;23.708;2023-08-17T01:48:41;4.70;;;4.30;;
80249;SDS011;69561;37.974;23.708;2023-08-17T01:51:07;4.65;;;4.25;;
80249;SDS011;69561;37.974;23.708;2023-08-17T01:53:33;4.90;;;4.47;;
80249;SDS011;69561;37.974;23.708;2023-08-17T01:55:59;5.07;;;4.68;;
80249;SDS011;69561;37.974;23.708;2023-08-17T01:58:24;5.18;;;4.47;;
80249;SDS011;69561;37.974;23.708;2023-08-17T02:00:50;4.45;;;4.05;;
80249;SDS011;69561;37.974;23.708;2023-08-17T02:03:16;4.80;;;4.40;;
80249;SDS011;69561;37.974;23.708;2023-08-17T02:05:45;4.85;;;4.25;;
80249;SDS011;69561;37.974;23.708;2023-08-17T02:08:11;4.80;;;4.38;;
80249;SDS011;69561;37.974;23.708;2023-08-17T02:10:37;4.50;;;4.15;;
80249;SDS011;69561;37.974;23.708;2023-08-17T02:13:03;4.57;;;4.18;;
80249;SDS011;69561;37.974;23.708;2023-08-17T02:15:29;4.88;;;4.47;;
80249;SDS011;69561;37.974;23.708;2023-08-17T02:17:56;4.90;;;4.40;;
80249;SDS011;69561;37.974;23.708;2023-08-17T02:20:24;5.75;;;4.43;;
80249;SDS011;69561;37.974;23.708;2023-08-17T02:22:50;5.43;;;4.65;;
80249;SDS011;69561;37.974;23.708;2023-08-17T02:25:15;4.63;;;4.22;;
80249;SDS011;69561;37.974;23.708;2023-08-17T02:27:41;5.03;;;4.63;;
80249;SDS011;69561;37.974;23.708;2023-08-17T02:30:07;4.95;;;4.45;;
80249;SDS011;69561;37.974;23.708;2023-08-17T02:32:33;4.95;;;4.45;;
80249;SDS011;69561;37.974;23.708;2023-08-17T02:34:59;4.55;;;4.15;;
80249;SDS011;69561;37.974;23.708;2023-08-17T02:37:24;4.57;;;4.18;;
80249;SDS011;69561;37.974;23.708;2023-08-17T02:39:50;4.50;;;4.10;;
80249;SDS011;69561;37.974;23.708;2023-08-17T02:42:16;4.97;;;4.53;;
80249;SDS011;69561;37.974;23.708;2023-08-17T02:44:41;4.78;;;4.38;;
80249;SDS011;69561;37.974;23.708;2023-08-17T02:47:07;5.00;;;4.50;;
80249;SDS011;69561;37.974;23.708;2023-08-17T02:49:33;4.70;;;4.30;;
80249;SDS011;69561;37.974;23.708;2023-08-17T02:51:58;4.80;;;4.40;;
80249;SDS011;69561;37.974;23.708;2023-08-17T02:54:24;5.18;;;4.60;;
80249;SDS011;69561;37.974;23.708;2023-08-17T02:56:50;5.10;;;4.50;;
80249;SDS011;69561;37.974;23.708;2023-08-17T02:59:16;4.82;;;4.43;;
80249;SDS011;69561;37.974;23.708;2023-08-17T03:01:41;4.68;;;4.28;;
80249;SDS011;69561;37.974;23.708;2023-08-17T03:04:08;4.90;;;4.43;;
80249;SDS011;69561;37.974;23.708;2023-08-17T03:06:34;4.45;;;4.05;;
80249;SDS011;69561;37.974;23.708;2023-08-17T03:09:00;4.90;;;4.50;;
80249;SDS011;69561;37.974;23.708;2023-08-17T03:11:25;4.97;;;4.47;;
80249;SDS011;69561;37.974;23.708;2023-08-17T03:13:51;4.82;;;4.43;;
80249;SDS011;69561;37.974;23.708;2023-08-17T03:16:19;4.50;;;4.10;;
80249;SDS011;69561;37.974;23.708;2023-08-17T03:18:44;4.78;;;4.28;;
80249;SDS011;69561;37.974;23.708;2023-08-17T03:21:10;5.15;;;4.72;;
80249;SDS011;69561;37.974;23.708;2023-08-17T03:23:36;5.05;;;4.57;;
80249;SDS011;69561;37.974;23.708;2023-08-17T03:26:02;5.18;;;4.70;;
80249;SDS011;69561;37.974;23.708;2023-08-17T03:28:28;4.28;;;3.97;;
80249;SDS011;69561;37.974;23.708;2023-08-17T03:30:56;4.43;;;4.10;;
80249;SDS011;69561;37.974;23.708;2023-08-17T03:33:22;4.75;;;4.30;;
80249;SDS011;69561;37.974;23.708;2023-08-17T03:35:48;4.57;;;4.18;;
80249;SDS011;69561;37.974;23.708;2023-08-17T03:38:13;5.10;;;4.60;;
80249;SDS011;69561;37.974;23.708;2023-08-17T03:40:39;4.80;;;4.40;;
80249;SDS011;69561;37.974;23.708;2023-08-17T03:43:05;4.50;;;4.10;;
80249;SDS011;69561;37.974;23.708;2023-08-17T03:45:31;4.65;;;4.28;;
80249;SDS011;69561;37.974;23.708;2023-08-17T03:47:56;5.15;;;4.57;;
80249;SDS011;69561;37.974;23.708;2023-08-17T03:50:22;4.53;;;4.13;;
80249;SDS011;69561;37.974;23.708;2023-08-17T03:52:48;4.55;;;4.25;;
80249;SDS011;69561;37.974;23.708;2023-08-17T03:55:13;5.07;;;4.60;;
80249;SDS011;69561;37.974;23.708;2023-08-17T03:57:39;4.65;;;4.25;;
80249;SDS011;69561;37.974;23.708;2023-08-17T04:00:05;4.47;;;4.10;;
80249;SDS011;69561;37.974;23.708;2023-08-17T04:02:32;4.57;;;4.18;;
80249;SDS011;69561;37.974;23.708;2023-08-17T04:04:58;4.47;;;4.07;;
80249;SDS011;69561;37.974;23.708;2023-08-17T04:07:23;4.45;;;4.15;;
80249;SDS011;69561;37.974;23.708;2023-08-17T04:09:49;4.70;;;4.30;;
80249;SDS011;69561;37.974;23.708;2023-08-17T04:12:15;5.53;;;4.50;;
80249;SDS011;69561;37.974;23.708;2023-08-17T04:14:40;4.60;;;4.20;;
80249;SDS011;69561;37.974;23.708;2023-08-17T04:17:06;4.80;;;4.40;;
80249;SDS011;69561;37.974;23.708;2023-08-17T04:19:32;4.53;;;4.13;;
80249;SDS011;69561;37.974;23.708;2023-08-17T04:21:57;4.80;;;4.30;;
80249;SDS011;69561;37.974;23.708;2023-08-17T04:24:23;4.82;;;4.43;;
80249;SDS011;69561;37.974;23.708;2023-08-17T04:26:49;4.55;;;4.15;;
80249;SDS011;69561;37.974;23.708;2023-08-17T04:29:15;4.63;;;4.22;;
80249;SDS011;69561;37.974;23.708;2023-08-17T04:31:41;4.63;;;4.22;;
80249;SDS011;69561;37.974;23.708;2023-08-17T04:34:07;4.57;;;4.18;;
80249;SDS011;69561;37.974;23.708;2023-08-17T04:36:32;4.65;;;4.25;;
80249;SDS011;69561;37.974;23.708;2023-08-17T04:38:58;4.40;;;4.10;;
80249;SDS011;69561;37.974;23.708;2023-08-17T04:41:24;4.60;;;4.18;;
80249;SDS011;69561;37.974;23.708;2023-08-17T04:43:50;5.07;;;4.30;;
80249;SDS011;69561;37.974;23.708;2023-08-17T04:46:15;4.50;;;4.10;;
80249;SDS011;69561;37.974;23.708;2023-08-17T04:48:41;4.32;;;4.03;;
80249;SDS011;69561;37.974;23.708;2023-08-17T04:51:07;4.40;;;4.00;;
80249;SDS011;69561;37.974;23.708;2023-08-17T04:53:33;3.80;;;3.50;;
80249;SDS011;69561;37.974;23.708;2023-08-17T04:55:59;4.10;;;3.70;;
80249;SDS011;69561;37.974;23.708;2023-08-17T04:58:25;3.92;;;3.58;;
80249;SDS011;69561;37.974;23.708;2023-08-17T05:00:50;3.30;;;3.05;;
80249;SDS011;69561;37.974;23.708;2023-08-17T05:03:16;4.93;;;2.83;;
80249;SDS011;69561;37.974;23.708;2023-08-17T05:05:42;3.10;;;2.90;;
80249;SDS011;69561;37.974;23.708;2023-08-17T05:08:08;3.05;;;2.75;;
80249;SDS011;69561;37.974;23.708;2023-08-17T05:10:34;2.75;;;2.55;;
80249;SDS011;69561;37.974;23.708;2023-08-17T05:12:59;3.05;;;2.63;;
80249;SDS011;69561;37.974;23.708;2023-08-17T05:15:25;2.42;;;2.22;;
80249;SDS011;69561;37.974;23.708;2023-08-17T05:17:51;2.60;;;2.40;;
80249;SDS011;69561;37.974;23.708;2023-08-17T05:20:16;2.53;;;2.22;;
80249;SDS011;69561;37.974;23.708;2023-08-17T05:22:42;2.70;;;2.45;;
80249;SDS011;69561;37.974;23.708;2023-08-17T05:25:08;2.40;;;2.20;;
80249;SDS011;69561;37.974;23.708;2023-08-17T05:27:34;2.40;;;2.20;;
80249;SDS011;69561;37.974;23.708;2023-08-17T05:29:59;3.35;;;2.20;;
80249;SDS011;69561;37.974;23.708;2023-08-17T05:32:25;2.30;;;2.20;;
80249;SDS011;69561;37.974;23.708;2023-08-17T05:34:51;2.42;;;2.22;;
80249;SDS011;69561;37.974;23.708;2023-08-17T05:37:17;2.30;;;2.10;;
80249;SDS011;69561;37.974;23.708;2023-08-17T05:39:43;2.60;;;2.40;;
80249;SDS011;69561;37.974;23.708;2023-08-17T05:42:08;2.30;;;2.05;;
80249;SDS011;69561;37.974;23.708;2023-08-17T05:44:35;2.35;;;2.15;;
80249;SDS011;69561;37.974;23.708;2023-08-17T05:47:00;2.63;;;2.15;;
80249;SDS011;69561;37.974;23.708;2023-08-17T05:49:26;1.80;;;1.70;;
80249;SDS011;69561;37.974;23.708;2023-08-17T05:51:52;3.08;;;2.03;;
80249;SDS011;69561;37.974;23.708;2023-08-17T05:54:18;2.13;;;1.73;;
80249;SDS011;69561;37.974;23.708;2023-08-17T05:56:44;1.80;;;1.70;;
80249;SDS011;69561;37.974;23.708;2023-08-17T05:59:11;1.80;;;1.70;;
80249;SDS011;69561;37.974;23.708;2023-08-17T06:01:39;2.35;;;1.88;;
80249;SDS011;69561;37.974;23.708;2023-08-17T06:04:05;1.70;;;1.60;;
80249;SDS011;69561;37.974;23.708;2023-08-17T06:06:32;2.17;;;1.98;;
80249;SDS011;69561;37.974;23.708;2023-08-17T06:08:57;2.20;;;1.92;;
80249;SDS011;69561;37.974;23.708;2023-08-17T06:11:23;2.00;;;1.80;;
80249;SDS011;69561;37.974;23.708;2023-08-17T06:13:49;1.80;;;1.58;;
80249;SDS011;69561;37.974;23.708;2023-08-17T06:16:15;2.10;;;1.70;;
80249;SDS011;69561;37.974;23.708;2023-08-17T06:18:41;5.03;;;1.75;;
80249;SDS011;69561;37.974;23.708;2023-08-17T06:21:07;4.78;;;1.88;;
80249;SDS011;69561;37.974;23.708;2023-08-17T06:23:33;1.83;;;1.73;;
80249;SDS011;69561;37.974;23.708;2023-08-17T06:25:59;1.80;;;1.70;;
80249;SDS011;69561;37.974;23.708;2023-08-17T06:28:25;1.83;;;1.67;;
80249;SDS011;69561;37.974;23.708;2023-08-17T06:30:52;2.28;;;1.70;;
80249;SDS011;69561;37.974;23.708;2023-08-17T06:33:18;1.40;;;1.30;;
80249;SDS011;69561;37.974;23.708;2023-08-17T06:35:44;1.65;;;1.55;;
80249;SDS011;69561;37.974;23.708;2023-08-17T06:38:10;1.70;;;1.60;;
80249;SDS011;69561;37.974;23.708;2023-08-17T06:40:37;1.70;;;1.60;;
80249;SDS011;69561;37.974;23.708;2023-08-17T06:43:03;1.70;;;1.60;;
80249;SDS011;69561;37.974;23.708;2023-08-17T06:45:31;1.60;;;1.50;;
80249;SDS011;69561;37.974;23.708;2023-08-17T06:47:57;1.60;;;1.50;;
80249;SDS011;69561;37.974;23.708;2023-08-17T06:50:23;1.42;;;1.33;;
80249;SDS011;69561;37.974;23.708;2023-08-17T06:52:49;1.60;;;1.50;;
80249;SDS011;69561;37.974;23.708;2023-08-17T06:55:14;1.60;;;1.50;;
80249;SDS011;69561;37.974;23.708;2023-08-17T06:57:42;1.65;;;1.55;;
80249;SDS011;69561;37.974;23.708;2023-08-17T07:00:08;1.50;;;1.40;;
80249;SDS011;69561;37.974;23.708;2023-08-17T07:02:36;1.52;;;1.40;;
80249;SDS011;69561;37.974;23.708;2023-08-17T07:05:02;1.55;;;1.45;;
80249;SDS011;69561;37.974;23.708;2023-08-17T07:07:29;1.58;;;1.48;;
80249;SDS011;69561;37.974;23.708;2023-08-17T07:09:57;1.80;;;1.70;;
80249;SDS011;69561;37.974;23.708;2023-08-17T07:12:23;1.70;;;1.60;;
80249;SDS011;69561;37.974;23.708;2023-08-17T07:14:49;1.50;;;1.40;;
80249;SDS011;69561;37.974;23.708;2023-08-17T07:17:15;1.70;;;1.60;;
80249;SDS011;69561;37.974;23.708;2023-08-17T07:19:41;1.70;;;1.60;;
80249;SDS011;69561;37.974;23.708;2023-08-17T07:22:07;1.52;;;1.42;;
80249;SDS011;69561;37.974;23.708;2023-08-17T07:24:32;1.70;;;1.60;;
80249;SDS011;69561;37.974;23.708;2023-08-17T07:26:58;1.80;;;1.70;;
80249;SDS011;69561;37.974;23.708;2023-08-17T07:29:24;1.70;;;1.60;;
80249;SDS011;69561;37.974;23.708;2023-08-17T07:31:50;1.60;;;1.50;;
80249;SDS011;69561;37.974;23.708;2023-08-17T07:34:15;1.58;;;1.48;;
80249;SDS011;69561;37.974;23.708;2023-08-17T07:36:41;1.58;;;1.48;;
80249;SDS011;69561;37.974;23.708;2023-08-17T07:39:07;2.08;;;1.88;;
80249;SDS011;69561;37.974;23.708;2023-08-17T07:41:33;1.70;;;1.60;;
80249;SDS011;69561;37.974;23.708;2023-08-17T07:43:58;2.03;;;1.75;;
80249;SDS011;69561;37.974;23.708;2023-08-17T07:46:24;1.80;;;1.42;;
80249;SDS011;69561;37.974;23.708;2023-08-17T07:48:50;1.65;;;1.55;;
80249;SDS011;69561;37.974;23.708;2023-08-17T07:51:15;1.50;;;1.40;;
80249;SDS011;69561;37.974;23.708;2023-08-17T07:53:41;1.60;;;1.50;;
80249;SDS011;69561;37.974;23.708;2023-08-17T07:56:07;1.58;;;1.45;;
80249;SDS011;69561;37.974;23.708;2023-08-17T07:58:32;1.48;;;1.38;;
80249;SDS011;69561;37.974;23.708;2023-08-17T08:00:58;1.70;;;1.58;;
80249;SDS011;69561;37.974;23.708;2023-08-17T08:03:24;2.97;;;1.70;;
80249;SDS011;69561;37.974;23.708;2023-08-17T08:05:50;1.50;;;1.40;;
80249;SDS011;69561;37.974;23.708;2023-08-17T08:08:16;1.73;;;1.50;;
80249;SDS011;69561;37.974;23.708;2023-08-17T08:10:42;1.75;;;1.50;;
80249;SDS011;69561;37.974;23.708;2023-08-17T08:13:09;1.70;;;1.60;;
80249;SDS011;69561;37.974;23.708;2023-08-17T08:15:34;1.40;;;1.30;;
80249;SDS011;69561;37.974;23.708;2023-08-17T08:18:00;1.45;;;1.35;;
80249;SDS011;69561;37.974;23.708;2023-08-17T08:20:26;1.25;;;1.15;;
80249;SDS011;69561;37.974;23.708;2023-08-17T08:22:52;2.65;;;1.42;;
80249;SDS011;69561;37.974;23.708;2023-08-17T08:25:17;2.38;;;1.55;;
80249;SDS011;69561;37.974;23.708;2023-08-17T08:27:43;1.85;;;1.48;;
80249;SDS011;69561;37.974;23.708;2023-08-17T08:30:09;1.52;;;1.42;;
80249;SDS011;69561;37.974;23.708;2023-08-17T08:32:35;1.55;;;1.23;;
80249;SDS011;69561;37.974;23.708;2023-08-17T08:35:01;2.00;;;1.33;;
80249;SDS011;69561;37.974;23.708;2023-08-17T08:37:27;1.33;;;1.23;;
80249;SDS011;69561;37.974;23.708;2023-08-17T08:39:53;1.20;;;1.10;;
80249;SDS011;69561;37.974;23.708;2023-08-17T08:42:20;1.27;;;1.17;;
80249;SDS011;69561;37.974;23.708;2023-08-17T08:44:47;3.17;;;1.13;;
80249;SDS011;69561;37.974;23.708;2023-08-17T08:47:14;1.20;;;1.10;;
80249;SDS011;69561;37.974;23.708;2023-08-17T08:50:04;1.30;;;1.20;;
80249;SDS011;69561;37.974;23.708;2023-08-17T08:55:02;1.30;;;1.20;;
80249;SDS011;69561;37.974;23.708;2023-08-17T08:57:36;1.58;;;1.30;;
80249;SDS011;69561;37.974;23.708;2023-08-17T09:00:03;1.40;;;1.30;;
80249;SDS011;69561;37.974;23.708;2023-08-17T09:02:30;1.30;;;1.20;;
80249;SDS011;69561;37.974;23.708;2023-08-17T09:04:57;1.45;;;1.30;;
80249;SDS011;69561;37.974;23.708;2023-08-17T09:07:24;1.30;;;1.20;;
80249;SDS011;69561;37.974;23.708;2023-08-17T09:09:53;1.40;;;1.27;;
80249;SDS011;69561;37.974;23.708;2023-08-17T09:12:21;1.40;;;1.30;;
80249;SDS011;69561;37.974;23.708;2023-08-17T09:14:47;1.13;;;1.08;;
80249;SDS011;69561;37.974;23.708;2023-08-17T09:17:13;1.52;;;1.15;;
80249;SDS011;69561;37.974;23.708;2023-08-17T09:19:39;1.30;;;1.20;;
80249;SDS011;69561;37.974;23.708;2023-08-17T09:22:05;1.58;;;1.23;;
80249;SDS011;69561;37.974;23.708;2023-08-17T09:24:34;2.15;;;1.08;;
80249;SDS011;69561;37.974;23.708;2023-08-17T09:27:01;1.10;;;1.00;;
80249;SDS011;69561;37.974;23.708;2023-08-17T09:29:27;1.30;;;1.20;;
80249;SDS011;69561;37.974;23.708;2023-08-17T09:31:58;1.30;;;1.17;;
80249;SDS011;69561;37.974;23.708;2023-08-17T09:34:30;1.55;;;1.30;;
80249;SDS011;69561;37.974;23.708;2023-08-17T09:37:01;2.35;;;1.00;;
80249;SDS011;69561;37.974;23.708;2023-08-17T09:39:28;1.90;;;1.40;;
80249;SDS011;69561;37.974;23.708;2023-08-17T09:41:54;1.38;;;1.27;;
80249;SDS011;69561;37.974;23.708;2023-08-17T09:44:20;1.40;;;1.30;;
80249;SDS011;69561;37.974;23.708;2023-08-17T09:46:48;1.30;;;1.20;;
80249;SDS011;69561;37.974;23.708;2023-08-17T09:49:13;1.38;;;1.27;;
80249;SDS011;69561;37.974;23.708;2023-08-17T09:51:42;1.30;;;1.02;;
80249;SDS011;69561;37.974;23.708;2023-08-17T09:54:21;1.30;;;1.20;;
80249;SDS011;69561;37.974;23.708;2023-08-17T09:56:51;1.27;;;1.17;;
80249;SDS011;69561;37.974;23.708;2023-08-17T09:59:18;1.42;;;1.00;;
80249;SDS011;69561;37.974;23.708;2023-08-17T10:01:44;1.42;;;1.33;;
80249;SDS011;69561;37.974;23.708;2023-08-17T10:04:13;1.40;;;1.30;;
80249;SDS011;69561;37.974;23.708;2023-08-17T10:06:46;1.40;;;1.30;;
80249;SDS011;69561;37.974;23.708;2023-08-17T10:09:13;2.35;;;1.25;;
80249;SDS011;69561;37.974;23.708;2023-08-17T10:14:15;1.30;;;1.20;;
80249;SDS011;69561;37.974;23.708;2023-08-17T10:16:50;1.33;;;1.10;;
80249;SDS011;69561;37.974;23.708;2023-08-17T10:24:48;1.38;;;1.23;;
80249;SDS011;69561;37.974;23.708;2023-08-17T10:27:15;1.10;;;1.10;;
80249;SDS011;69561;37.974;23.708;2023-08-17T10:29:42;1.30;;;1.20;;
80249;SDS011;69561;37.974;23.708;2023-08-17T10:32:09;1.17;;;1.08;;
80249;SDS011;69561;37.974;23.708;2023-08-17T10:34:36;2.03;;;1.10;;
80249;SDS011;69561;37.974;23.708;2023-08-17T10:37:03;1.10;;;1.00;;
80249;SDS011;69561;37.974;23.708;2023-08-17T10:39:30;1.40;;;1.30;;
80249;SDS011;69561;37.974;23.708;2023-08-17T10:41:56;1.30;;;1.20;;
80249;SDS011;69561;37.974;23.708;2023-08-17T10:44:39;1.00;;;1.00;;
80249;SDS011;69561;37.974;23.708;2023-08-17T10:47:24;1.25;;;1.17;;
80249;SDS011;69561;37.974;23.708;2023-08-17T10:52:33;1.27;;;1.13;;
80249;SDS011;69561;37.974;23.708;2023-08-17T10:55:04;1.30;;;1.20;;
80249;SDS011;69561;37.974;23.708;2023-08-17T11:00:31;1.30;;;1.20;;
80249;SDS011;69561;37.974;23.708;2023-08-17T11:02:58;1.30;;;1.20;;
80249;SDS011;69561;37.974;23.708;2023-08-17T11:08:03;1.50;;;1.40;;
80249;SDS011;69561;37.974;23.708;2023-08-17T11:10:34;1.50;;;1.40;;
80249;SDS011;69561;37.974;23.708;2023-08-17T11:13:00;1.38;;;1.27;;
80249;SDS011;69561;37.974;23.708;2023-08-17T11:15:36;1.30;;;1.20;;
80249;SDS011;69561;37.974;23.708;2023-08-17T11:18:07;1.50;;;1.40;;
80249;SDS011;69561;37.974;23.708;2023-08-17T11:20:34;1.40;;;1.30;;
80249;SDS011;69561;37.974;23.708;2023-08-17T11:23:00;1.38;;;1.27;;
80249;SDS011;69561;37.974;23.708;2023-08-17T11:25:26;1.58;;;1.30;;
80249;SDS011;69561;37.974;23.708;2023-08-17T11:27:53;1.40;;;1.30;;
80249;SDS011;69561;37.974;23.708;2023-08-17T11:30:22;1.65;;;1.55;;
80249;SDS011;69561;37.974;23.708;2023-08-17T11:32:50;1.30;;;1.20;;
80249;SDS011;69561;37.974;23.708;2023-08-17T11:35:16;1.23;;;1.13;;
80249;SDS011;69561;37.974;23.708;2023-08-17T11:37:42;1.30;;;1.20;;
80249;SDS011;69561;37.974;23.708;2023-08-17T11:40:10;1.30;;;1.20;;
80249;SDS011;69561;37.974;23.708;2023-08-17T11:42:36;1.40;;;1.30;;
80249;SDS011;69561;37.974;23.708;2023-08-17T11:45:03;1.30;;;1.20;;
80249;SDS011;69561;37.974;23.708;2023-08-17T11:47:30;1.02;;;0.93;;
80249;SDS011;69561;37.974;23.708;2023-08-17T11:50:00;1.27;;;1.17;;
80249;SDS011;69561;37.974;23.708;2023-08-17T11:52:30;1.40;;;1.30;;
80249;SDS011;69561;37.974;23.708;2023-08-17T11:54:58;1.40;;;1.30;;
80249;SDS011;69561;37.974;23.708;2023-08-17T11:57:24;1.55;;;1.20;;
80249;SDS011;69561;37.974;23.708;2023-08-17T11:59:57;1.65;;;1.27;;
80249;SDS011;69561;37.974;23.708;2023-08-17T12:02:23;1.40;;;1.30;;
80249;SDS011;69561;37.974;23.708;2023-08-17T12:04:53;1.65;;;1.55;;
80249;SDS011;69561;37.974;23.708;2023-08-17T12:07:21;2.53;;;1.57;;
80249;SDS011;69561;37.974;23.708;2023-08-17T12:09:49;1.20;;;1.10;;
80249;SDS011;69561;37.974;23.708;2023-08-17T12:12:19;1.48;;;1.38;;
80249;SDS011;69561;37.974;23.708;2023-08-17T12:14:47;1.60;;;1.50;;
80249;SDS011;69561;37.974;23.708;2023-08-17T12:17:17;1.35;;;1.25;;
80249;SDS011;69561;37.974;23.708;2023-08-17T12:19:44;1.48;;;1.38;;
80249;SDS011;69561;37.974;23.708;2023-08-17T12:22:13;1.35;;;1.25;;
80249;SDS011;69561;37.974;23.708;2023-08-17T12:24:39;1.33;;;1.23;;
80249;SDS011;69561;37.974;23.708;2023-08-17T12:27:05;1.10;;;1.10;;
80249;SDS011;69561;37.974;23.708;2023-08-17T12:29:31;1.52;;;1.38;;
80249;SDS011;69561;37.974;23.708;2023-08-17T12:31:58;1.20;;;1.10;;
80249;SDS011;69561;37.974;23.708;2023-08-17T12:34:24;2.83;;;1.30;;
80249;SDS011;69561;37.974;23.708;2023-08-17T12:36:51;1.40;;;1.30;;
80249;SDS011;69561;37.974;23.708;2023-08-17T12:39:17;1.50;;;1.40;;
80249;SDS011;69561;37.974;23.708;2023-08-17T12:41:42;1.40;;;1.30;;
80249;SDS011;69561;37.974;23.708;2023-08-17T12:44:09;1.40;;;1.30;;
80249;SDS011;69561;37.974;23.708;2023-08-17T12:46:39;1.20;;;1.20;;
80249;SDS011;69561;37.974;23.708;2023-08-17T12:49:05;1.30;;;1.20;;
80249;SDS011;69561;37.974;23.708;2023-08-17T12:51:31;1.25;;;1.15;;
80249;SDS011;69561;37.974;23.708;2023-08-17T12:53:57;1.40;;;1.30;;
80249;SDS011;69561;37.974;23.708;2023-08-17T12:56:23;1.30;;;1.20;;
80249;SDS011;69561;37.974;23.708;2023-08-17T12:58:48;1.30;;;1.20;;
80249;SDS011;69561;37.974;23.708;2023-08-17T13:01:14;1.83;;;1.38;;
80249;SDS011;69561;37.974;23.708;2023-08-17T13:03:40;1.30;;;1.20;;
80249;SDS011;69561;37.974;23.708;2023-08-17T14:09:57;1.40;;;1.30;;
80249;SDS011;69561;37.974;23.708;2023-08-17T14:12:23;1.38;;;1.27;;
80249;SDS011;69561;37.974;23.708;2023-08-17T14:14:49;2.28;;;1.33;;
80249;SDS011;69561;37.974;23.708;2023-08-17T14:17:14;1.40;;;1.30;;
80249;SDS011;69561;37.974;23.708;2023-08-17T14:19:40;1.05;;;1.05;;
80249;SDS011;69561;37.974;23.708;2023-08-17T14:22:07;1.40;;;1.27;;
80249;SDS011;69561;37.974;23.708;2023-08-17T14:24:33;1.10;;;1.00;;
80249;SDS011;69561;37.974;23.708;2023-08-17T14:26:59;1.30;;;1.20;;
80249;SDS011;69561;37.974;23.708;2023-08-17T14:29:24;2.20;;;0.98;;
80249;SDS011;69561;37.974;23.708;2023-08-17T14:31:50;2.30;;;1.20;;
80249;SDS011;69561;37.974;23.708;2023-08-17T14:34:16;1.40;;;1.30;;
80249;SDS011;69561;37.974;23.708;2023-08-17T14:36:42;1.20;;;1.10;;
80249;SDS011;69561;37.974;23.708;2023-08-17T14:39:07;1.20;;;1.10;;
80249;SDS011;69561;37.974;23.708;2023-08-17T14:41:33;1.23;;;1.10;;
80249;SDS011;69561;37.974;23.708;2023-08-17T14:43:59;0.90;;;0.90;;
80249;SDS011;69561;37.974;23.708;2023-08-17T14:46:25;1.10;;;1.10;;
80249;SDS011;69561;37.974;23.708;2023-08-17T14:48:51;1.10;;;1.00;;
80249;SDS011;69561;37.974;23.708;2023-08-17T14:51:17;1.13;;;1.10;;
80249;SDS011;69561;37.974;23.708;2023-08-17T14:53:42;1.60;;;1.50;;
80249;SDS011;69561;37.974;23.708;2023-08-17T14:56:08;1.05;;;1.00;;
80249;SDS011;69561;37.974;23.708;2023-08-17T14:58:34;1.15;;;1.10;;
80249;SDS011;69561;37.974;23.708;2023-08-17T15:01:00;1.27;;;1.17;;
80249;SDS011;69561;37.974;23.708;2023-08-17T15:03:26;0.98;;;0.88;;
80249;SDS011;69561;37.974;23.708;2023-08-17T15:05:51;1.30;;;1.15;;
80249;SDS011;69561;37.974;23.708;2023-08-17T15:08:17;1.30;;;1.20;;
80249;SDS011;69561;37.974;23.708;2023-08-17T15:10:43;0.98;;;0.98;;
80249;SDS011;69561;37.974;23.708;2023-08-17T15:13:09;1.15;;;1.00;;
80249;SDS011;69561;37.974;23.708;2023-08-17T15:15:34;1.13;;;1.02;;
80249;SDS011;69561;37.974;23.708;2023-08-17T15:18:02;1.63;;;1.00;;
80249;SDS011;69561;37.974;23.708;2023-08-17T15:20:28;1.20;;;1.10;;
80249;SDS011;69561;37.974;23.708;2023-08-17T15:22:55;1.10;;;1.00;;
80249;SDS011;69561;37.974;23.708;2023-08-17T15:25:21;1.23;;;1.13;;
80249;SDS011;69561;37.974;23.708;2023-08-17T15:27:46;1.35;;;1.00;;
80249;SDS011;69561;37.974;23.708;2023-08-17T15:30:12;1.30;;;1.20;;
80249;SDS011;69561;37.974;23.708;2023-08-17T15:32:38;1.25;;;1.15;;
80249;SDS011;69561;37.974;23.708;2023-08-17T15:35:04;1.45;;;1.23;;
80249;SDS011;69561;37.974;23.708;2023-08-17T15:37:30;1.40;;;1.30;;
80249;SDS011;69561;37.974;23.708;2023-08-17T15:39:56;1.45;;;1.30;;
80249;SDS011;69561;37.974;23.708;2023-08-17T15:42:21;2.30;;;1.40;;
80249;SDS011;69561;37.974;23.708;2023-08-17T15:44:47;1.65;;;1.55;;
80249;SDS011;69561;37.974;23.708;2023-08-17T15:47:13;1.70;;;1.40;;
80249;SDS011;69561;37.974;23.708;2023-08-17T15:49:39;2.85;;;1.40;;
80249;SDS011;69561;37.974;23.708;2023-08-17T15:52:04;1.63;;;1.50;;
80249;SDS011;69561;37.974;23.708;2023-08-17T15:54:30;1.95;;;1.60;;
80249;SDS011;69561;37.974;23.708;2023-08-17T15:56:56;2.35;;;1.70;;
80249;SDS011;69561;37.974;23.708;2023-08-17T15:59:21;2.95;;;1.67;;